sensor_id;sensor_type;location;lat;lon;timestamp;pressure;altitude;pressure_sealevel;temperature;humidity
6128;BME280;7073;42.672;23.256;2023-03-21T00:02:22;94220.13;;;11.76;59.01
6128;BME280;7073;42.672;23.256;2023-03-21T00:04:49;94225.91;;;11.90;59.59
6128;BME280;7073;42.672;23.256;2023-03-21T00:07:16;94224.69;;;11.92;58.85
6128;BME280;7073;42.672;23.256;2023-03-21T00:09:44;94226.38;;;11.87;59.66
6128;BME280;7073;42.672;23.256;2023-03-21T00:12:11;94223.16;;;11.73;60.74
6128;BME280;7073;42.672;23.256;2023-03-21T00:14:38;94227.16;;;11.76;61.05
6128;BME280;7073;42.672;23.256;2023-03-21T00:17:05;94223.06;;;11.91;59.89
6128;BME280;7073;42.672;23.256;2023-03-21T00:19:32;94209.81;;;11.93;59.13
6128;BME280;7073;42.672;23.256;2023-03-21T00:22:03;94215.59;;;11.72;59.95
6128;BME280;7073;42.672;23.256;2023-03-21T00:24:30;94213.53;;;11.74;59.80
6128;BME280;7073;42.672;23.256;2023-03-21T00:26:58;94224.31;;;11.89;60.65
6128;BME280;7073;42.672;23.256;2023-03-21T00:29:25;94220.38;;;11.98;60.12
6128;BME280;7073;42.672;23.256;2023-03-21T00:31:52;94211.16;;;11.84;60.30
6128;BME280;7073;42.672;23.256;2023-03-21T00:34:19;94218.97;;;11.72;60.33
6128;BME280;7073;42.672;23.256;2023-03-21T00:36:45;94211.56;;;11.16;62.11
6128;BME280;7073;42.672;23.256;2023-03-21T00:39:12;94209.97;;;11.15;63.20
6128;BME280;7073;42.672;23.256;2023-03-21T00:41:39;94216.34;;;11.19;63.14
6128;BME280;7073;42.672;23.256;2023-03-21T00:44:08;94203.44;;;11.36;62.86
6128;BME280;7073;42.672;23.256;2023-03-21T00:46:35;94208.75;;;11.71;61.75
6128;BME280;7073;42.672;23.256;2023-03-21T00:49:02;94205.13;;;11.72;61.37
6128;BME280;7073;42.672;23.256;2023-03-21T00:51:29;94199.25;;;11.76;61.91
6128;BME280;7073;42.672;23.256;2023-03-21T00:53:57;94208.31;;;11.74;61.74
6128;BME280;7073;42.672;23.256;2023-03-21T00:56:24;94211.84;;;11.91;61.03
6128;BME280;7073;42.672;23.256;2023-03-21T00:58:50;94206.16;;;11.94;59.88
6128;BME280;7073;42.672;23.256;2023-03-21T01:01:19;94204.25;;;12.01;59.40
6128;BME280;7073;42.672;23.256;2023-03-21T01:03:45;94210.38;;;11.95;59.16
6128;BME280;7073;42.672;23.256;2023-03-21T01:06:17;94195.94;;;11.69;59.48
6128;BME280;7073;42.672;23.256;2023-03-21T01:08:45;94204.09;;;11.73;59.46
6128;BME280;7073;42.672;23.256;2023-03-21T01:11:15;94204.28;;;11.59;59.65
6128;BME280;7073;42.672;23.256;2023-03-21T01:13:43;94203.75;;;11.28;60.61
6128;BME280;7073;42.672;23.256;2023-03-21T01:16:10;94194.00;;;11.23;60.93
6128;BME280;7073;42.672;23.256;2023-03-21T01:18:39;94193.38;;;11.39;60.48
6128;BME280;7073;42.672;23.256;2023-03-21T01:21:08;94193.13;;;11.41;61.38
6128;BME280;7073;42.672;23.256;2023-03-21T01:23:36;94205.59;;;11.27;62.10
6128;BME280;7073;42.672;23.256;2023-03-21T01:26:03;94204.66;;;10.92;64.48
6128;BME280;7073;42.672;23.256;2023-03-21T01:28:30;94207.59;;;10.84;63.53
6128;BME280;7073;42.672;23.256;2023-03-21T01:30:59;94202.19;;;10.97;65.57
6128;BME280;7073;42.672;23.256;2023-03-21T01:33:27;94204.88;;;10.90;66.28
6128;BME280;7073;42.672;23.256;2023-03-21T01:35:56;94203.81;;;11.10;64.98
6128;BME280;7073;42.672;23.256;2023-03-21T01:38:23;94196.50;;;11.18;64.30
6128;BME280;7073;42.672;23.256;2023-03-21T01:40:50;94199.59;;;11.27;63.35
6128;BME280;7073;42.672;23.256;2023-03-21T01:43:29;94199.25;;;11.35;62.67
6128;BME280;7073;42.672;23.256;2023-03-21T01:46:18;94199.38;;;11.40;62.48
6128;BME280;7073;42.672;23.256;2023-03-21T01:48:49;94192.94;;;11.42;61.53
6128;BME280;7073;42.672;23.256;2023-03-21T01:51:18;94202.25;;;11.50;60.76
6128;BME280;7073;42.672;23.256;2023-03-21T01:53:46;94199.50;;;11.56;60.34
6128;BME280;7073;42.672;23.256;2023-03-21T01:56:18;94197.06;;;11.61;60.04
6128;BME280;7073;42.672;23.256;2023-03-21T01:58:48;94198.66;;;11.21;61.39
6128;BME280;7073;42.672;23.256;2023-03-21T02:01:16;94190.41;;;10.94;63.21
6128;BME280;7073;42.672;23.256;2023-03-21T02:03:48;94202.53;;;10.71;65.24
6128;BME280;7073;42.672;23.256;2023-03-21T02:06:24;94205.97;;;10.35;66.84
6128;BME280;7073;42.672;23.256;2023-03-21T02:09:00;94192.19;;;10.10;68.29
6128;BME280;7073;42.672;23.256;2023-03-21T02:11:29;94187.91;;;9.97;69.17
6128;BME280;7073;42.672;23.256;2023-03-21T02:13:57;94186.78;;;10.11;69.16
6128;BME280;7073;42.672;23.256;2023-03-21T02:16:31;94189.19;;;10.06;69.49
6128;BME280;7073;42.672;23.256;2023-03-21T02:19:14;94185.22;;;10.04;69.30
6128;BME280;7073;42.672;23.256;2023-03-21T02:22:15;94187.66;;;10.23;68.11
6128;BME280;7073;42.672;23.256;2023-03-21T02:25:22;94184.63;;;10.26;66.98
6128;BME280;7073;42.672;23.256;2023-03-21T02:27:58;94180.53;;;9.94;67.85
6128;BME280;7073;42.672;23.256;2023-03-21T02:30:37;94176.31;;;9.93;68.40
6128;BME280;7073;42.672;23.256;2023-03-21T02:33:37;94173.22;;;9.60;70.98
6128;BME280;7073;42.672;23.256;2023-03-21T02:36:16;94180.94;;;9.91;71.32
6128;BME280;7073;42.672;23.256;2023-03-21T02:38:51;94178.19;;;9.86;71.39
6128;BME280;7073;42.672;23.256;2023-03-21T02:41:25;94184.56;;;9.90;71.96
6128;BME280;7073;42.672;23.256;2023-03-21T02:43:56;94162.16;;;9.89;72.09
6128;BME280;7073;42.672;23.256;2023-03-21T02:46:29;94171.09;;;10.18;71.05
6128;BME280;7073;42.672;23.256;2023-03-21T02:49:04;94172.69;;;10.37;69.24
6128;BME280;7073;42.672;23.256;2023-03-21T02:51:34;94173.13;;;10.34;69.21
6128;BME280;7073;42.672;23.256;2023-03-21T02:54:06;94174.50;;;10.36;69.24
6128;BME280;7073;42.672;23.256;2023-03-21T02:56:35;94178.84;;;10.24;69.82
6128;BME280;7073;42.672;23.256;2023-03-21T02:59:03;94172.31;;;10.15;70.18
6128;BME280;7073;42.672;23.256;2023-03-21T03:01:30;94177.63;;;10.27;70.05
6128;BME280;7073;42.672;23.256;2023-03-21T03:03:57;94178.69;;;10.37;69.45
6128;BME280;7073;42.672;23.256;2023-03-21T03:06:28;94180.78;;;10.47;68.56
6128;BME280;7073;42.672;23.256;2023-03-21T03:09:11;94151.47;;;9.97;70.06
6128;BME280;7073;42.672;23.256;2023-03-21T03:12:07;94162.59;;;10.04;71.32
6128;BME280;7073;42.672;23.256;2023-03-21T03:14:45;94182.41;;;10.05;71.66
6128;BME280;7073;42.672;23.256;2023-03-21T03:17:22;94178.78;;;9.88;72.32
6128;BME280;7073;42.672;23.256;2023-03-21T03:20:09;94180.66;;;9.81;71.36
6128;BME280;7073;42.672;23.256;2023-03-21T03:22:47;94187.88;;;9.79;70.69
6128;BME280;7073;42.672;23.256;2023-03-21T03:25:23;94191.63;;;9.83;69.45
6128;BME280;7073;42.672;23.256;2023-03-21T03:27:52;94186.69;;;9.75;69.91
6128;BME280;7073;42.672;23.256;2023-03-21T03:30:24;94155.34;;;9.70;70.77
6128;BME280;7073;42.672;23.256;2023-03-21T03:32:54;94183.78;;;9.65;72.02
6128;BME280;7073;42.672;23.256;2023-03-21T03:35:23;94182.84;;;9.59;72.99
6128;BME280;7073;42.672;23.256;2023-03-21T03:37:55;94187.56;;;9.44;73.54
6128;BME280;7073;42.672;23.256;2023-03-21T03:40:26;94169.66;;;9.05;74.84
6128;BME280;7073;42.672;23.256;2023-03-21T03:42:58;94189.56;;;9.17;73.97
6128;BME280;7073;42.672;23.256;2023-03-21T03:45:29;94185.16;;;9.18;74.74
6128;BME280;7073;42.672;23.256;2023-03-21T03:48:03;94164.56;;;8.92;75.60
6128;BME280;7073;42.672;23.256;2023-03-21T03:50:36;94182.16;;;8.90;75.84
6128;BME280;7073;42.672;23.256;2023-03-21T03:53:07;94182.44;;;9.06;73.35
6128;BME280;7073;42.672;23.256;2023-03-21T03:55:40;94181.03;;;9.04;72.32
6128;BME280;7073;42.672;23.256;2023-03-21T03:58:07;94184.88;;;9.01;72.52
6128;BME280;7073;42.672;23.256;2023-03-21T04:00:34;94183.03;;;9.08;72.98
6128;BME280;7073;42.672;23.256;2023-03-21T04:03:01;94173.50;;;9.27;72.46
6128;BME280;7073;42.672;23.256;2023-03-21T04:05:28;94181.41;;;9.39;73.37
6128;BME280;7073;42.672;23.256;2023-03-21T04:07:54;94168.66;;;9.31;74.24
6128;BME280;7073;42.672;23.256;2023-03-21T04:10:21;94179.50;;;9.28;74.23
6128;BME280;7073;42.672;23.256;2023-03-21T04:12:50;94176.06;;;9.02;76.18
6128;BME280;7073;42.672;23.256;2023-03-21T04:15:17;94179.66;;;9.01;76.58
6128;BME280;7073;42.672;23.256;2023-03-21T04:17:45;94172.56;;;9.21;75.53
6128;BME280;7073;42.672;23.256;2023-03-21T04:20:12;94168.00;;;9.42;74.57
6128;BME280;7073;42.672;23.256;2023-03-21T04:22:39;94166.63;;;9.39;74.03
6128;BME280;7073;42.672;23.256;2023-03-21T04:25:07;94171.00;;;9.39;73.96
6128;BME280;7073;42.672;23.256;2023-03-21T04:27:35;94151.00;;;9.14;74.28
6128;BME280;7073;42.672;23.256;2023-03-21T04:30:03;94170.97;;;9.14;75.04
6128;BME280;7073;42.672;23.256;2023-03-21T04:32:32;94163.16;;;8.89;76.60
6128;BME280;7073;42.672;23.256;2023-03-21T04:35:05;94173.63;;;8.76;77.45
6128;BME280;7073;42.672;23.256;2023-03-21T04:37:33;94168.81;;;8.35;79.98
6128;BME280;7073;42.672;23.256;2023-03-21T04:40:01;94175.56;;;8.49;80.31
6128;BME280;7073;42.672;23.256;2023-03-21T04:42:32;94173.19;;;8.48;79.75
6128;BME280;7073;42.672;23.256;2023-03-21T04:44:59;94160.84;;;8.37;80.01
6128;BME280;7073;42.672;23.256;2023-03-21T04:47:28;94165.84;;;8.32;79.79
6128;BME280;7073;42.672;23.256;2023-03-21T04:49:55;94169.22;;;8.39;79.74
6128;BME280;7073;42.672;23.256;2023-03-21T04:52:22;94177.63;;;8.28;80.26
6128;BME280;7073;42.672;23.256;2023-03-21T04:54:49;94188.81;;;8.35;79.63
6128;BME280;7073;42.672;23.256;2023-03-21T04:57:16;94179.59;;;8.39;78.90
6128;BME280;7073;42.672;23.256;2023-03-21T04:59:43;94180.75;;;8.43;78.94
6128;BME280;7073;42.672;23.256;2023-03-21T05:02:10;94178.09;;;8.63;77.85
6128;BME280;7073;42.672;23.256;2023-03-21T05:04:38;94182.59;;;8.80;77.62
6128;BME280;7073;42.672;23.256;2023-03-21T05:07:05;94188.16;;;8.84;76.92
6128;BME280;7073;42.672;23.256;2023-03-21T05:09:32;94184.13;;;8.94;77.04
6128;BME280;7073;42.672;23.256;2023-03-21T05:11:59;94193.69;;;8.94;77.63
6128;BME280;7073;42.672;23.256;2023-03-21T05:14:26;94192.72;;;8.88;79.56
6128;BME280;7073;42.672;23.256;2023-03-21T05:16:56;94188.50;;;8.94;79.57
6128;BME280;7073;42.672;23.256;2023-03-21T05:19:26;94180.31;;;8.90;79.04
6128;BME280;7073;42.672;23.256;2023-03-21T05:22:01;94189.06;;;9.02;78.42
6128;BME280;7073;42.672;23.256;2023-03-21T05:24:29;94198.47;;;9.03;78.43
6128;BME280;7073;42.672;23.256;2023-03-21T05:26:56;94198.38;;;9.16;77.37
6128;BME280;7073;42.672;23.256;2023-03-21T05:29:27;94193.06;;;8.98;77.69
6128;BME280;7073;42.672;23.256;2023-03-21T05:31:54;94193.75;;;9.18;77.34
6128;BME280;7073;42.672;23.256;2023-03-21T05:34:21;94191.78;;;9.45;76.77
6128;BME280;7073;42.672;23.256;2023-03-21T05:36:47;94199.47;;;9.58;76.21
6128;BME280;7073;42.672;23.256;2023-03-21T05:39:16;94199.81;;;9.62;75.95
6128;BME280;7073;42.672;23.256;2023-03-21T05:41:43;94199.94;;;9.73;75.36
6128;BME280;7073;42.672;23.256;2023-03-21T05:44:10;94195.69;;;9.79;75.56
6128;BME280;7073;42.672;23.256;2023-03-21T05:46:37;94194.84;;;10.03;74.69
6128;BME280;7073;42.672;23.256;2023-03-21T05:49:03;94192.72;;;10.18;73.78
6128;BME280;7073;42.672;23.256;2023-03-21T05:51:30;94185.97;;;10.11;73.54
6128;BME280;7073;42.672;23.256;2023-03-21T05:53:57;94185.63;;;10.25;73.58
6128;BME280;7073;42.672;23.256;2023-03-21T05:56:25;94178.41;;;10.46;72.66
6128;BME280;7073;42.672;23.256;2023-03-21T05:58:52;94182.66;;;10.58;70.86
6128;BME280;7073;42.672;23.256;2023-03-21T06:01:18;94147.88;;;10.53;70.69
6128;BME280;7073;42.672;23.256;2023-03-21T06:03:45;94169.03;;;10.74;69.89
6128;BME280;7073;42.672;23.256;2023-03-21T06:06:12;94155.19;;;10.74;69.60
6128;BME280;7073;42.672;23.256;2023-03-21T06:08:39;94166.91;;;10.83;70.18
6128;BME280;7073;42.672;23.256;2023-03-21T06:11:11;94164.41;;;10.88;70.58
6128;BME280;7073;42.672;23.256;2023-03-21T06:13:45;94171.00;;;10.90;71.36
6128;BME280;7073;42.672;23.256;2023-03-21T06:16:11;94159.06;;;11.13;71.11
6128;BME280;7073;42.672;23.256;2023-03-21T06:18:38;94160.13;;;11.23;69.88
6128;BME280;7073;42.672;23.256;2023-03-21T06:21:05;94162.31;;;11.49;69.02
6128;BME280;7073;42.672;23.256;2023-03-21T06:23:32;94147.81;;;11.65;68.57
6128;BME280;7073;42.672;23.256;2023-03-21T06:25:59;94157.59;;;11.81;68.24
6128;BME280;7073;42.672;23.256;2023-03-21T06:28:25;94159.41;;;11.92;66.73
6128;BME280;7073;42.672;23.256;2023-03-21T06:30:54;94153.25;;;12.10;66.03
6128;BME280;7073;42.672;23.256;2023-03-21T06:33:20;94157.28;;;12.41;64.82
6128;BME280;7073;42.672;23.256;2023-03-21T06:35:50;94159.06;;;12.63;64.01
6128;BME280;7073;42.672;23.256;2023-03-21T06:38:17;94158.88;;;12.81;62.56
6128;BME280;7073;42.672;23.256;2023-03-21T06:40:44;94156.44;;;12.63;63.23
6128;BME280;7073;42.672;23.256;2023-03-21T06:43:11;94166.81;;;12.86;64.19
6128;BME280;7073;42.672;23.256;2023-03-21T06:45:38;94166.34;;;13.18;62.56
6128;BME280;7073;42.672;23.256;2023-03-21T06:48:06;94171.84;;;13.33;61.02
6128;BME280;7073;42.672;23.256;2023-03-21T06:50:33;94178.03;;;13.43;60.11
6128;BME280;7073;42.672;23.256;2023-03-21T06:53:00;94183.94;;;13.51;60.65
6128;BME280;7073;42.672;23.256;2023-03-21T06:55:27;94173.66;;;13.16;59.67
6128;BME280;7073;42.672;23.256;2023-03-21T06:57:55;94188.28;;;13.45;58.22
6128;BME280;7073;42.672;23.256;2023-03-21T07:00:23;94192.00;;;13.49;57.83
6128;BME280;7073;42.672;23.256;2023-03-21T07:02:50;94163.22;;;13.32;57.20
6128;BME280;7073;42.672;23.256;2023-03-21T07:05:19;94182.50;;;13.43;56.92
6128;BME280;7073;42.672;23.256;2023-03-21T07:07:46;94184.97;;;13.66;58.33
6128;BME280;7073;42.672;23.256;2023-03-21T07:10:13;94190.50;;;14.20;55.82
6128;BME280;7073;42.672;23.256;2023-03-21T07:12:41;94173.19;;;14.19;55.60
6128;BME280;7073;42.672;23.256;2023-03-21T07:15:09;94186.66;;;14.27;54.34
6128;BME280;7073;42.672;23.256;2023-03-21T07:17:36;94183.59;;;14.14;53.54
6128;BME280;7073;42.672;23.256;2023-03-21T07:20:03;94199.03;;;14.48;53.50
6128;BME280;7073;42.672;23.256;2023-03-21T07:22:34;94196.34;;;14.27;53.44
6128;BME280;7073;42.672;23.256;2023-03-21T08:10:13;94192.78;;;14.16;52.12
6128;BME280;7073;42.672;23.256;2023-03-21T08:12:40;94201.97;;;14.74;50.54
6128;BME280;7073;42.672;23.256;2023-03-21T08:15:08;94200.84;;;15.13;49.20
6128;BME280;7073;42.672;23.256;2023-03-21T08:17:35;94181.88;;;15.32;48.76
6128;BME280;7073;42.672;23.256;2023-03-21T08:20:06;94207.44;;;15.69;47.05
6128;BME280;7073;42.672;23.256;2023-03-21T08:22:33;94194.28;;;15.15;48.85
6128;BME280;7073;42.672;23.256;2023-03-21T08:25:01;94192.88;;;14.81;50.30
6128;BME280;7073;42.672;23.256;2023-03-21T08:27:30;94184.19;;;15.02;49.21
6128;BME280;7073;42.672;23.256;2023-03-21T08:29:58;94190.59;;;15.11;48.90
6128;BME280;7073;42.672;23.256;2023-03-21T08:32:24;94193.50;;;14.66;49.08
6128;BME280;7073;42.672;23.256;2023-03-21T08:34:54;94184.41;;;14.96;49.35
6128;BME280;7073;42.672;23.256;2023-03-21T08:37:22;94175.56;;;15.33;49.63
6128;BME280;7073;42.672;23.256;2023-03-21T08:39:49;94188.78;;;15.70;47.54
6128;BME280;7073;42.672;23.256;2023-03-21T08:42:16;94193.13;;;15.86;47.08
6128;BME280;7073;42.672;23.256;2023-03-21T08:44:45;94192.78;;;15.78;46.68
6128;BME280;7073;42.672;23.256;2023-03-21T08:47:12;94207.19;;;16.02;46.45
6128;BME280;7073;42.672;23.256;2023-03-21T08:49:40;94187.56;;;15.83;47.01
6128;BME280;7073;42.672;23.256;2023-03-21T08:52:10;94150.03;;;15.51;46.08
6128;BME280;7073;42.672;23.256;2023-03-21T08:54:37;94180.69;;;15.72;46.78
6128;BME280;7073;42.672;23.256;2023-03-21T08:57:06;94186.78;;;15.77;47.90
6128;BME280;7073;42.672;23.256;2023-03-21T08:59:35;94180.25;;;15.26;49.00
6128;BME280;7073;42.672;23.256;2023-03-21T09:02:03;94186.16;;;15.70;47.37
6128;BME280;7073;42.672;23.256;2023-03-21T09:04:30;94180.78;;;15.87;47.30
6128;BME280;7073;42.672;23.256;2023-03-21T09:06:57;94173.47;;;15.57;47.40
6128;BME280;7073;42.672;23.256;2023-03-21T09:09:26;94174.97;;;15.48;49.09
6128;BME280;7073;42.672;23.256;2023-03-21T09:11:54;94179.31;;;15.11;49.58
6128;BME280;7073;42.672;23.256;2023-03-21T09:14:20;94152.97;;;15.27;49.09
6128;BME280;7073;42.672;23.256;2023-03-21T09:16:48;94162.22;;;15.35;49.57
6128;BME280;7073;42.672;23.256;2023-03-21T09:19:16;94158.66;;;15.46;49.38
6128;BME280;7073;42.672;23.256;2023-03-21T09:21:43;94157.50;;;15.64;48.67
6128;BME280;7073;42.672;23.256;2023-03-21T09:24:11;94159.75;;;15.50;48.69
6128;BME280;7073;42.672;23.256;2023-03-21T09:26:40;94151.50;;;15.68;48.72
6128;BME280;7073;42.672;23.256;2023-03-21T09:29:08;94104.47;;;15.35;47.97
6128;BME280;7073;42.672;23.256;2023-03-21T09:31:35;94139.53;;;15.82;48.23
6128;BME280;7073;42.672;23.256;2023-03-21T09:34:04;94150.00;;;16.19;47.61
6128;BME280;7073;42.672;23.256;2023-03-21T09:36:33;94140.59;;;15.86;47.88
6128;BME280;7073;42.672;23.256;2023-03-21T09:39:00;94140.38;;;15.93;47.18
6128;BME280;7073;42.672;23.256;2023-03-21T09:41:43;94122.69;;;15.47;48.62
6128;BME280;7073;42.672;23.256;2023-03-21T09:44:23;94123.81;;;15.56;49.02
6128;BME280;7073;42.672;23.256;2023-03-21T09:46:55;94128.03;;;15.57;48.07
6128;BME280;7073;42.672;23.256;2023-03-21T09:49:31;94125.47;;;16.04;46.55
6128;BME280;7073;42.672;23.256;2023-03-21T09:52:04;94130.44;;;16.00;46.49
6128;BME280;7073;42.672;23.256;2023-03-21T09:54:39;94128.00;;;15.88;48.03
6128;BME280;7073;42.672;23.256;2023-03-21T09:57:15;94115.97;;;15.98;46.91
6128;BME280;7073;42.672;23.256;2023-03-21T09:59:47;94117.63;;;16.09;47.85
6128;BME280;7073;42.672;23.256;2023-03-21T10:02:28;94126.81;;;16.06;47.55
6128;BME280;7073;42.672;23.256;2023-03-21T10:05:01;94116.03;;;16.65;47.46
6128;BME280;7073;42.672;23.256;2023-03-21T10:07:39;94124.38;;;16.51;46.98
6128;BME280;7073;42.672;23.256;2023-03-21T10:10:14;94113.47;;;16.75;46.64
6128;BME280;7073;42.672;23.256;2023-03-21T10:12:45;94117.28;;;17.54;45.32
6128;BME280;7073;42.672;23.256;2023-03-21T10:15:16;94112.25;;;17.78;44.41
6128;BME280;7073;42.672;23.256;2023-03-21T10:17:47;94111.34;;;18.43;43.12
6128;BME280;7073;42.672;23.256;2023-03-21T10:20:18;94107.41;;;18.41;43.08
6128;BME280;7073;42.672;23.256;2023-03-21T10:22:48;94110.19;;;18.74;41.96
6128;BME280;7073;42.672;23.256;2023-03-21T10:25:18;94098.72;;;18.94;39.85
6128;BME280;7073;42.672;23.256;2023-03-21T10:27:45;94108.22;;;18.26;40.31
6128;BME280;7073;42.672;23.256;2023-03-21T10:30:31;94094.38;;;18.69;41.59
6128;BME280;7073;42.672;23.256;2023-03-21T10:33:02;94103.84;;;18.75;40.62
6128;BME280;7073;42.672;23.256;2023-03-21T10:35:30;94111.56;;;19.54;39.48
6128;BME280;7073;42.672;23.256;2023-03-21T10:38:03;94117.13;;;19.53;38.54
6128;BME280;7073;42.672;23.256;2023-03-21T10:40:31;94114.50;;;19.53;38.85
6128;BME280;7073;42.672;23.256;2023-03-21T10:43:16;94120.03;;;20.14;37.85
6128;BME280;7073;42.672;23.256;2023-03-21T10:45:45;94107.53;;;19.67;38.21
6128;BME280;7073;42.672;23.256;2023-03-21T10:48:12;94118.69;;;19.59;38.04
6128;BME280;7073;42.672;23.256;2023-03-21T10:50:39;94114.41;;;18.75;39.58
6128;BME280;7073;42.672;23.256;2023-03-21T10:53:14;94120.91;;;19.37;38.20
6128;BME280;7073;42.672;23.256;2023-03-21T10:55:47;94111.72;;;19.68;36.23
6128;BME280;7073;42.672;23.256;2023-03-21T10:58:19;94098.34;;;19.88;36.66
6128;BME280;7073;42.672;23.256;2023-03-21T11:00:54;94100.75;;;19.85;36.21
6128;BME280;7073;42.672;23.256;2023-03-21T11:03:26;94097.44;;;19.35;38.29
6128;BME280;7073;42.672;23.256;2023-03-21T11:06:01;94077.09;;;19.36;37.77
6128;BME280;7073;42.672;23.256;2023-03-21T11:08:34;94088.16;;;19.43;36.55
6128;BME280;7073;42.672;23.256;2023-03-21T11:11:05;94078.56;;;19.81;36.38
6128;BME280;7073;42.672;23.256;2023-03-21T11:13:36;94078.16;;;20.21;35.25
6128;BME280;7073;42.672;23.256;2023-03-21T11:16:07;94077.31;;;19.73;35.89
6128;BME280;7073;42.672;23.256;2023-03-21T11:18:40;94069.25;;;19.88;36.75
6128;BME280;7073;42.672;23.256;2023-03-21T11:21:09;94082.94;;;20.19;36.27
6128;BME280;7073;42.672;23.256;2023-03-21T11:23:41;94081.19;;;19.86;34.87
6128;BME280;7073;42.672;23.256;2023-03-21T11:26:16;94063.38;;;19.96;36.49
6128;BME280;7073;42.672;23.256;2023-03-21T11:28:45;94060.34;;;19.12;38.42
6128;BME280;7073;42.672;23.256;2023-03-21T11:31:12;94052.66;;;19.54;37.63
6128;BME280;7073;42.672;23.256;2023-03-21T11:33:41;94058.09;;;19.63;37.25
6128;BME280;7073;42.672;23.256;2023-03-21T11:36:30;94056.69;;;19.41;37.58
6128;BME280;7073;42.672;23.256;2023-03-21T11:39:13;94045.03;;;19.47;36.67
6128;BME280;7073;42.672;23.256;2023-03-21T11:41:41;94042.63;;;19.51;37.45
6128;BME280;7073;42.672;23.256;2023-03-21T11:44:25;94039.41;;;19.20;36.70
6128;BME280;7073;42.672;23.256;2023-03-21T11:46:52;94040.94;;;19.26;37.23
6128;BME280;7073;42.672;23.256;2023-03-21T11:49:20;94041.56;;;19.13;37.81
6128;BME280;7073;42.672;23.256;2023-03-21T11:51:51;94011.84;;;18.98;38.11
6128;BME280;7073;42.672;23.256;2023-03-21T11:54:30;94033.66;;;19.13;36.95
6128;BME280;7073;42.672;23.256;2023-03-21T11:57:05;94029.50;;;19.41;36.91
6128;BME280;7073;42.672;23.256;2023-03-21T11:59:41;94032.97;;;19.31;36.28
6128;BME280;7073;42.672;23.256;2023-03-21T12:02:25;94023.34;;;19.50;36.89
6128;BME280;7073;42.672;23.256;2023-03-21T12:05:00;94015.56;;;19.64;35.96
6128;BME280;7073;42.672;23.256;2023-03-21T12:07:38;94021.06;;;19.34;37.08
6128;BME280;7073;42.672;23.256;2023-03-21T12:10:37;94019.72;;;19.03;37.26
6128;BME280;7073;42.672;23.256;2023-03-21T12:16:09;94012.69;;;19.27;36.16
6128;BME280;7073;42.672;23.256;2023-03-21T12:21:47;94007.16;;;19.57;36.69
6128;BME280;7073;42.672;23.256;2023-03-21T12:24:21;94008.31;;;19.46;36.28
6128;BME280;7073;42.672;23.256;2023-03-21T12:26:56;93996.63;;;19.52;36.32
6128;BME280;7073;42.672;23.256;2023-03-21T12:29:37;93991.34;;;19.52;36.52
6128;BME280;7073;42.672;23.256;2023-03-21T12:32:16;93997.47;;;19.47;36.47
6128;BME280;7073;42.672;23.256;2023-03-21T12:34:57;93991.03;;;19.25;35.94
6128;BME280;7073;42.672;23.256;2023-03-21T12:37:33;93996.22;;;19.40;36.34
6128;BME280;7073;42.672;23.256;2023-03-21T12:40:08;93990.84;;;19.50;36.75
6128;BME280;7073;42.672;23.256;2023-03-21T12:43:00;93991.44;;;19.42;35.82
6128;BME280;7073;42.672;23.256;2023-03-21T12:45:31;93986.16;;;19.42;35.64
6128;BME280;7073;42.672;23.256;2023-03-21T12:48:10;93973.88;;;19.56;35.12
6128;BME280;7073;42.672;23.256;2023-03-21T12:50:41;93985.09;;;19.95;34.42
6128;BME280;7073;42.672;23.256;2023-03-21T12:53:23;93966.81;;;20.17;33.63
6128;BME280;7073;42.672;23.256;2023-03-21T12:55:52;93977.03;;;20.05;34.54
6128;BME280;7073;42.672;23.256;2023-03-21T12:58:23;93979.00;;;19.71;34.92
6128;BME280;7073;42.672;23.256;2023-03-21T13:00:55;93969.28;;;19.90;34.24
6128;BME280;7073;42.672;23.256;2023-03-21T13:03:25;93953.84;;;19.97;34.50
6128;BME280;7073;42.672;23.256;2023-03-21T13:05:56;93968.22;;;20.10;34.81
6128;BME280;7073;42.672;23.256;2023-03-21T13:08:27;93958.88;;;19.75;35.13
6128;BME280;7073;42.672;23.256;2023-03-21T13:10:57;93958.78;;;19.28;34.68
6128;BME280;7073;42.672;23.256;2023-03-21T13:13:32;93939.69;;;19.41;34.98
6128;BME280;7073;42.672;23.256;2023-03-21T13:16:07;93950.22;;;19.70;35.02
6128;BME280;7073;42.672;23.256;2023-03-21T13:18:42;93947.25;;;19.47;35.28
6128;BME280;7073;42.672;23.256;2023-03-21T13:21:14;93947.59;;;19.41;36.11
6128;BME280;7073;42.672;23.256;2023-03-21T13:23:54;93918.22;;;18.85;36.63
6128;BME280;7073;42.672;23.256;2023-03-21T13:26:31;93934.97;;;19.04;36.30
6128;BME280;7073;42.672;23.256;2023-03-21T13:29:00;93953.13;;;19.11;36.20
6128;BME280;7073;42.672;23.256;2023-03-21T13:31:27;93896.25;;;19.18;36.08
6128;BME280;7073;42.672;23.256;2023-03-21T13:33:58;93936.66;;;18.90;35.08
6128;BME280;7073;42.672;23.256;2023-03-21T13:36:27;93925.63;;;18.83;36.00
6128;BME280;7073;42.672;23.256;2023-03-21T13:39:00;93939.59;;;18.45;36.36
6128;BME280;7073;42.672;23.256;2023-03-21T13:41:31;93904.50;;;18.49;37.06
6128;BME280;7073;42.672;23.256;2023-03-21T13:44:13;93906.25;;;18.15;37.01
6128;BME280;7073;42.672;23.256;2023-03-21T13:46:43;93926.50;;;18.73;36.25
6128;BME280;7073;42.672;23.256;2023-03-21T13:49:24;93931.00;;;18.68;36.29
6128;BME280;7073;42.672;23.256;2023-03-21T13:51:54;93929.19;;;18.97;36.37
6128;BME280;7073;42.672;23.256;2023-03-21T13:57:20;93924.50;;;18.89;36.82
6128;BME280;7073;42.672;23.256;2023-03-21T13:59:48;93920.56;;;18.86;37.14
6128;BME280;7073;42.672;23.256;2023-03-21T14:02:35;93917.25;;;19.05;37.67
6128;BME280;7073;42.672;23.256;2023-03-21T14:05:04;93916.69;;;18.79;38.08
6128;BME280;7073;42.672;23.256;2023-03-21T14:07:33;93907.28;;;19.02;37.41
6128;BME280;7073;42.672;23.256;2023-03-21T14:10:03;93915.44;;;18.71;37.29
6128;BME280;7073;42.672;23.256;2023-03-21T14:12:36;93910.03;;;18.86;36.54
6128;BME280;7073;42.672;23.256;2023-03-21T14:15:07;93914.91;;;18.30;37.06
6128;BME280;7073;42.672;23.256;2023-03-21T14:17:48;93919.22;;;18.11;38.49
6128;BME280;7073;42.672;23.256;2023-03-21T14:20:19;93917.19;;;18.47;39.58
6128;BME280;7073;42.672;23.256;2023-03-21T14:22:47;93892.06;;;18.55;38.22
6128;BME280;7073;42.672;23.256;2023-03-21T14:25:16;93910.72;;;18.63;38.92
6128;BME280;7073;42.672;23.256;2023-03-21T14:27:48;93905.47;;;18.63;38.27